Time;durP1;ratioP1;P1;durP2;ratioP2;P2;SDS_P1;SDS_P2;PMS_P1;PMS_P2;Temp;Humidity;BMP_temperature;BMP_pressure;BME280_temperature;BME280_humidity;BME280_pressure;Samples;Min_cycle;Max_cycle;Signal;HPM_P1;HPM_P2
2022/12/12 00:00:21;;;;;;;33.20;21.47;;;;;;;-0.89;52.75;99377.84;10218506;28;20678;-35
2022/12/12 00:05:23;;;;;;;30.57;19.33;;;;;;;-0.20;52.02;99341.75;10221420;28;20614;-36
2022/12/12 00:10:25;;;;;;;28.50;19.43;;;;;;;-0.89;52.84;99379.63;10226573;28;20268;-36
2022/12/12 00:15:27;;;;;;;30.23;20.03;;;;;;;-0.10;51.57;99338.28;10235750;28;20277;-36
2022/12/12 00:20:29;;;;;;;29.80;18.97;;;;;;;-1.51;53.69;99407.09;10230541;28;20250;-38
2022/12/12 00:25:31;;;;;;;31.17;20.50;;;;;;;-1.18;53.47;99406.34;10228189;28;20243;-37
2022/12/12 00:30:33;;;;;;;32.43;20.80;;;;;;;-1.79;54.57;99415.25;10224323;28;20239;-35
2022/12/12 00:35:34;;;;;;;29.70;19.50;;;;;;;-0.89;53.98;99377.84;10232835;28;20666;-37
2022/12/12 00:40:36;;;;;;;31.30;18.90;;;;;;;-0.24;52.11;99346.44;10225886;28;20231;-37
2022/12/12 00:45:38;;;;;;;29.10;19.27;;;;;;;-0.67;52.72;99357.72;10228497;28;20239;-36
2022/12/12 00:50:40;;;;;;;33.83;20.97;;;;;;;-0.71;52.89;99372.91;10225991;28;20356;-38
2022/12/12 00:55:42;;;;;;;36.50;22.77;;;;;;;-0.31;51.78;99353.16;10225114;28;20236;-38
2022/12/12 01:00:44;;;;;;;31.23;19.87;;;;;;;-0.65;52.30;99369.00;10226114;28;20240;-38
2022/12/12 01:05:45;;;;;;;29.47;19.43;;;;;;;-0.30;51.87;99378.47;10222996;28;20231;-35
2022/12/12 01:10:47;;;;;;;26.63;17.53;;;;;;;-0.08;51.44;99356.53;10223881;28;20247;-35
2022/12/12 01:15:50;;;;;;;31.90;19.37;;;;;;;0.15;50.99;99359.06;10223941;28;20240;-37
2022/12/12 01:20:52;;;;;;;30.90;19.67;;;;;;;-0.50;51.45;99387.97;10217182;28;20297;-37
2022/12/12 01:26:06;;;;;;;30.87;18.70;;;;;;;-2.35;54.21;99459.56;10222924;28;20259;-35
2022/12/12 01:31:08;;;;;;;28.23;18.13;;;;;;;-2.69;56.84;99446.19;10219779;28;20855;-35
2022/12/12 01:36:16;;;;;;;30.33;18.47;;;;;;;-1.74;54.17;99422.78;10224014;28;20303;-36
2022/12/12 01:41:18;;;;;;;29.17;18.17;;;;;;;-2.94;56.27;99447.06;10227273;28;20243;-37
2022/12/12 01:46:32;;;;;;;30.17;18.50;;;;;;;-1.83;55.00;99426.94;10225870;28;20235;-37
2022/12/12 01:51:35;;;;;;;27.30;17.33;;;;;;;-3.18;56.65;99446.91;10222161;28;20575;-36
2022/12/12 01:56:40;;;;;;;32.57;20.67;;;;;;;-3.38;57.33;99437.78;10227037;28;20247;-37
2022/12/12 02:01:42;;;;;;;33.10;20.17;;;;;;;-1.32;53.92;99369.81;10224252;28;20235;-37
2022/12/12 02:06:45;;;;;;;31.20;18.10;;;;;;;-2.86;56.42;99431.66;10225446;28;20238;-36
2022/12/12 02:11:51;;;;;;;33.17;20.00;;;;;;;-1.62;54.24;99400.88;10224070;28;20235;-36
2022/12/12 02:17:14;;;;;;;36.40;20.50;;;;;;;-1.92;53.06;99422.34;10229348;28;20690;-36
2022/12/12 02:22:46;;;;;;;33.10;19.73;;;;;;;-2.03;53.97;99419.69;10215706;28;20240;-35
2022/12/12 02:28:26;;;;;;;33.67;20.97;;;;;;;-2.01;55.10;99416.00;10219132;28;20235;-37
2022/12/12 02:33:48;;;;;;;33.83;20.80;;;;;;;-1.21;52.78;99399.56;10226585;28;20245;-36
2022/12/12 02:38:59;;;;;;;31.43;18.50;;;;;;;-1.94;53.65;99432.13;10225210;28;20605;-37
2022/12/12 02:44:29;;;;;;;30.03;18.90;;;;;;;-3.46;56.58;99438.28;10214601;28;20615;-37
2022/12/12 02:49:47;;;;;;;33.20;19.50;;;;;;;-1.41;53.20;99390.56;10217868;28;20243;-37
2022/12/12 02:54:49;;;;;;;30.50;19.40;;;;;;;-1.13;52.42;99379.75;10216562;28;20908;-37
2022/12/12 03:00:07;;;;;;;29.83;18.50;;;;;;;-1.90;54.41;99402.13;10213788;28;20239;-35
2022/12/12 03:10:55;;;;;;;30.93;19.23;;;;;;;-2.18;54.55;99424.25;10227086;28;20856;-34
2022/12/12 03:16:17;;;;;;;32.30;20.17;;;;;;;-1.96;54.18;99402.56;10217239;28;20430;-36
2022/12/12 03:21:45;;;;;;;29.60;18.63;;;;;;;-1.76;53.25;99408.97;10220543;28;20458;-37
2022/12/12 03:26:54;;;;;;;31.17;19.13;;;;;;;-2.41;54.67;99439.00;10220454;28;20235;-37
2022/12/12 03:32:25;;;;;;;30.90;19.33;;;;;;;-3.36;56.18;99447.22;10219569;28;20236;-34
2022/12/12 03:37:32;;;;;;;28.00;18.27;;;;;;;-4.09;56.79;99460.69;10223684;28;20235;-37
2022/12/12 03:42:55;;;;;;;31.63;18.87;;;;;;;-4.16;58.26;99428.91;10220103;28;20254;-36
2022/12/12 03:48:07;;;;;;;31.67;18.33;;;;;;;-4.37;59.02;99408.41;10227915;28;20231;-36
2022/12/12 03:53:35;;;;;;;31.63;19.97;;;;;;;-4.31;59.22;99398.50;10230584;28;20790;-36
2022/12/12 03:58:55;;;;;;;32.23;19.07;;;;;;;-4.22;59.79;99349.09;10220469;28;20242;-35
2022/12/12 04:04:30;;;;;;;31.90;19.73;;;;;;;-3.62;58.00;99357.41;10223726;28;20752;-36
2022/12/12 04:15:16;;;;;;;37.57;20.10;;;;;;;-4.88;60.09;99374.19;10229839;28;20240;-35
2022/12/12 04:31:21;;;;;;;32.53;22.00;;;;;;;-3.18;56.45;99337.81;10224452;28;21116;-37
2022/12/12 04:36:25;;;;;;;31.47;20.50;;;;;;;-4.29;59.25;99355.69;10227234;28;20775;-37
2022/12/12 04:41:31;;;;;;;32.67;20.07;;;;;;;-4.12;58.81;99354.56;10220035;28;20739;-37
2022/12/12 04:46:33;;;;;;;34.40;22.00;;;;;;;-3.72;57.60;99338.00;10220033;28;20284;-38
2022/12/12 04:52:04;;;;;;;31.20;20.40;;;;;;;-4.15;59.03;99347.75;10222516;28;20239;-37
2022/12/12 04:57:46;;;;;;;33.27;21.03;;;;;;;-2.20;54.97;99311.66;10226587;28;20238;-36
2022/12/12 05:03:31;;;;;;;36.27;23.77;;;;;;;-2.41;55.13;99328.94;10219455;28;20230;-35
2022/12/12 05:09:00;;;;;;;33.83;21.00;;;;;;;-3.24;54.79;99387.97;10222712;28;20751;-39
2022/12/12 05:14:26;;;;;;;32.73;20.83;;;;;;;-4.15;57.12;99399.19;10222583;28;20239;-36
2022/12/12 05:19:52;;;;;;;32.83;20.83;;;;;;;-1.88;54.15;99328.53;10217878;28;20226;-38
2022/12/12 05:25:17;;;;;;;33.50;21.07;;;;;;;-2.50;53.92;99361.88;10215097;28;20322;-35
2022/12/12 05:30:43;;;;;;;33.73;21.13;;;;;;;-1.95;52.81;99355.25;10221477;28;20280;-35
2022/12/12 05:36:09;;;;;;;28.93;19.13;;;;;;;-3.21;54.26;99403.47;10227283;28;20239;-36
2022/12/12 05:41:35;;;;;;;34.63;21.73;;;;;;;-2.16;53.55;99375.16;10218735;28;20235;-35
2022/12/12 05:47:00;;;;;;;32.43;20.73;;;;;;;-2.06;52.80;99375.34;10221359;28;20238;-39
2022/12/12 05:52:27;;;;;;;32.23;20.63;;;;;;;-2.76;53.92;99397.78;10224881;28;20271;-36
2022/12/12 05:57:53;;;;;;;30.23;18.97;;;;;;;-3.46;54.56;99433.91;10224311;28;20693;-34
2022/12/12 06:03:19;;;;;;;33.27;20.57;;;;;;;-2.43;53.66;99404.22;10222338;28;20239;-34
2022/12/12 06:08:45;;;;;;;37.57;23.40;;;;;;;-2.32;53.06;99406.91;10222755;28;20242;-39
2022/12/12 06:14:10;;;;;;;38.47;24.93;;;;;;;-3.59;55.71;99430.41;10224267;28;20631;-36
2022/12/12 19:12:22;;;;;;;51.97;33.23;;;;;;;-3.78;57.10;99345.34;10488106;28;20230;-68
2022/12/12 19:17:24;;;;;;;47.63;28.67;;;;;;;-3.80;57.17;99335.94;10484685;28;20234;-69
2022/12/12 19:22:29;;;;;;;84.83;42.93;;;;;;;-4.53;58.52;99373.75;10485533;28;20229;-70
2022/12/12 19:27:47;;;;;;;68.67;36.97;;;;;;;-3.63;56.87;99317.31;10467886;28;20595;-67
2022/12/12 19:32:49;;;;;;;52.10;26.57;;;;;;;-4.26;58.05;99325.88;10491123;28;20703;-71
2022/12/12 19:37:50;;;;;;;36.33;23.00;;;;;;;-4.53;58.98;99321.53;10486832;28;20229;-69
2022/12/12 19:42:53;;;;;;;38.10;25.83;;;;;;;-4.15;58.31;99312.97;10487347;28;20238;-65
2022/12/12 19:47:55;;;;;;;53.77;33.43;;;;;;;-3.88;58.01;99294.59;10488738;28;20266;-67
2022/12/12 19:52:57;;;;;;;56.10;34.10;;;;;;;-5.40;59.66;99380.81;10492538;28;20222;-67
2022/12/12 19:58:01;;;;;;;84.87;49.53;;;;;;;-4.61;59.08;99327.22;10491546;28;20646;-68
2022/12/12 20:03:03;;;;;;;414.93;169.10;;;;;;;-4.93;58.83;99343.16;10494840;28;20232;-67
2022/12/12 20:08:04;;;;;;;149.97;74.07;;;;;;;-4.34;58.57;99310.72;10495441;28;20232;-68
2022/12/12 20:13:06;;;;;;;433.87;236.80;;;;;;;-4.74;59.14;99311.50;10495404;28;21690;-67
2022/12/12 20:18:09;;;;;;;101.20;68.27;;;;;;;-5.16;59.08;99341.13;10497037;28;20800;-68
2022/12/12 20:23:16;;;;;;;75.47;56.70;;;;;;;-4.24;58.70;99270.00;10494316;28;20280;-67
2022/12/12 20:28:18;;;;;;;46.27;29.00;;;;;;;-4.80;59.24;99301.47;10495003;28;20238;-72
2022/12/12 20:33:20;;;;;;;43.07;27.37;;;;;;;-4.59;58.80;99293.19;10502033;28;21066;-68
2022/12/12 20:38:23;;;;;;;31.07;21.90;;;;;;;-4.82;58.34;99331.19;10510038;28;20244;-67
2022/12/12 20:43:26;;;;;;;35.07;22.83;;;;;;;-4.97;59.41;99296.44;10516210;28;20228;-68
2022/12/12 20:48:28;;;;;;;46.20;30.20;;;;;;;-4.72;59.05;99280.06;10509977;28;20888;-66
2022/12/12 20:53:30;;;;;;;71.87;47.87;;;;;;;-4.70;58.84;99270.38;10512030;28;20232;-68
2022/12/12 20:58:37;;;;;;;52.60;36.57;;;;;;;-4.63;58.53;99273.41;10516297;28;20244;-69
2022/12/12 21:03:40;;;;;;;43.93;28.83;;;;;;;-4.66;58.06;99304.97;10510164;28;20592;-68
2022/12/12 21:08:42;;;;;;;59.57;39.13;;;;;;;-4.93;58.61;99285.72;10514422;28;20255;-69
2022/12/12 21:13:44;;;;;;;46.43;31.27;;;;;;;-4.30;58.13;99246.03;10515579;28;20323;-65
2022/12/12 21:18:46;;;;;;;72.63;48.23;;;;;;;-4.28;58.36;99238.94;10507809;28;20233;-65
2022/12/12 21:23:48;;;;;;;38.47;26.67;;;;;;;-4.73;58.45;99275.81;10513430;28;20353;-65
2022/12/12 21:28:50;;;;;;;44.73;29.40;;;;;;;-4.79;59.10;99257.91;10510758;28;20600;-65
2022/12/12 21:33:52;;;;;;;48.00;31.00;;;;;;;-4.25;58.37;99221.28;10504421;28;20244;-65
2022/12/12 21:38:56;;;;;;;75.60;52.83;;;;;;;-4.91;58.58;99276.03;10512935;28;20234;-64
2022/12/12 21:43:58;;;;;;;38.67;23.87;;;;;;;-6.23;61.52;99303.09;10511938;28;20233;-61
2022/12/12 21:49:18;;;;;;;44.07;28.50;;;;;;;-5.40;60.02;99273.03;10512236;28;20235;-62
2022/12/12 21:54:21;;;;;;;35.47;26.97;;;;;;;-6.07;61.29;99292.59;10511776;28;20260;-63
2022/12/12 21:59:23;;;;;;;43.23;27.97;;;;;;;-5.45;60.75;99228.97;10510680;28;20237;-62
2022/12/12 22:04:25;;;;;;;44.57;31.30;;;;;;;-4.83;59.55;99197.22;10506460;28;20231;-64
2022/12/12 22:09:27;;;;;;;49.57;33.03;;;;;;;-5.54;60.38;99247.81;10509885;28;20251;-63
2022/12/12 22:14:29;;;;;;;38.83;26.07;;;;;;;-4.76;59.88;99169.78;10507214;28;20266;-62
2022/12/12 22:19:30;;;;;;;35.70;24.47;;;;;;;-5.79;60.30;99262.31;10509699;28;20231;-63
2022/12/12 22:24:32;;;;;;;43.37;26.60;;;;;;;-5.82;60.22;99259.06;10504418;28;20585;-63
2022/12/12 22:29:34;;;;;;;43.43;29.47;;;;;;;-5.73;60.32;99235.03;10506971;28;20236;-63
2022/12/12 22:34:35;;;;;;;42.57;27.87;;;;;;;-5.50;59.50;99223.22;10505241;28;20242;-63
2022/12/12 22:39:37;;;;;;;40.93;28.83;;;;;;;-5.63;60.84;99191.00;10507046;28;20247;-62
2022/12/12 22:44:39;;;;;;;38.60;24.30;;;;;;;-6.18;60.20;99276.78;10507950;28;20231;-63
2022/12/12 22:49:40;;;;;;;42.27;32.00;;;;;;;-6.00;60.74;99219.31;10504618;28;20277;-63
2022/12/12 22:54:42;;;;;;;42.67;29.00;;;;;;;-5.52;60.46;99178.16;10502879;28;20648;-62
2022/12/12 22:59:43;;;;;;;42.50;27.90;;;;;;;-5.97;60.65;99198.28;10501450;28;20266;-63
2022/12/12 23:04:45;;;;;;;30.07;21.60;;;;;;;-5.41;59.09;99175.69;10503977;28;20232;-63
2022/12/12 23:09:53;;;;;;;39.53;26.10;;;;;;;-6.35;59.99;99245.66;10498206;28;20237;-62
2022/12/12 23:14:55;;;;;;;49.10;30.23;;;;;;;-5.87;60.32;99162.91;10506331;28;20653;-63
2022/12/12 23:19:56;;;;;;;146.97;76.30;;;;;;;-6.31;60.74;99201.13;10506872;28;20223;-63
2022/12/12 23:24:58;;;;;;;75.20;45.30;;;;;;;-6.40;60.80;99181.66;10510581;28;20706;-62
2022/12/12 23:30:00;;;;;;;53.97;36.00;;;;;;;-5.78;59.92;99138.91;10517726;28;20262;-62
2022/12/12 23:35:02;;;;;;;68.53;48.90;;;;;;;-6.34;60.71;99167.44;10509992;28;20234;-63
2022/12/12 23:40:05;;;;;;;99.70;63.80;;;;;;;-6.45;60.73;99156.84;10508519;28;20286;-63
2022/12/12 23:45:07;;;;;;;82.57;52.73;;;;;;;-6.62;60.61;99181.25;10511031;28;20244;-61
2022/12/12 23:50:08;;;;;;;36.13;24.87;;;;;;;-6.35;60.14;99157.97;10511373;28;20231;-64
2022/12/12 23:55:10;;;;;;;33.17;22.10;;;;;;;-6.52;60.21;99155.50;10509488;28;20241;-63
